sensor_id;sensor_type;location;lat;lon;timestamp;pressure;altitude;pressure_sealevel;temperature;humidity
7407;BME280;3745;56.964;24.128;2023-02-13T00:01:02;102289.25;;;3.34;100.00
7407;BME280;3745;56.964;24.128;2023-02-13T00:03:28;102292.50;;;3.33;100.00
7407;BME280;3745;56.964;24.128;2023-02-13T00:05:53;102296.00;;;3.35;100.00
7407;BME280;3745;56.964;24.128;2023-02-13T00:08:19;102299.25;;;3.34;100.00
7407;BME280;3745;56.964;24.128;2023-02-13T00:10:46;102297.72;;;3.36;100.00
7407;BME280;3745;56.964;24.128;2023-02-13T00:13:11;102298.59;;;3.37;100.00
7407;BME280;3745;56.964;24.128;2023-02-13T00:15:37;102294.25;;;3.34;100.00
7407;BME280;3745;56.964;24.128;2023-02-13T00:18:03;102282.91;;;3.39;100.00
7407;BME280;3745;56.964;24.128;2023-02-13T00:20:28;102266.88;;;3.24;100.00
7407;BME280;3745;56.964;24.128;2023-02-13T00:22:54;102298.78;;;3.40;100.00
7407;BME280;3745;56.964;24.128;2023-02-13T00:25:20;102187.50;;;2.84;100.00
7407;BME280;3745;56.964;24.128;2023-02-13T00:27:45;102285.22;;;3.36;100.00
7407;BME280;3745;56.964;24.128;2023-02-13T00:30:11;102277.50;;;3.33;100.00
7407;BME280;3745;56.964;24.128;2023-02-13T00:32:37;102299.88;;;3.43;100.00
7407;BME280;3745;56.964;24.128;2023-02-13T00:35:03;102288.91;;;3.41;100.00
7407;BME280;3745;56.964;24.128;2023-02-13T00:37:28;102300.28;;;3.49;100.00
7407;BME280;3745;56.964;24.128;2023-02-13T00:39:54;102288.72;;;3.51;100.00
7407;BME280;3745;56.964;24.128;2023-02-13T00:42:20;102297.63;;;3.59;100.00
7407;BME280;3745;56.964;24.128;2023-02-13T00:44:51;102251.81;;;3.36;100.00
7407;BME280;3745;56.964;24.128;2023-02-13T00:47:17;102225.75;;;3.32;100.00
7407;BME280;3745;56.964;24.128;2023-02-13T00:49:43;102258.69;;;3.51;100.00
7407;BME280;3745;56.964;24.128;2023-02-13T00:52:09;102260.44;;;3.52;100.00
7407;BME280;3745;56.964;24.128;2023-02-13T00:54:34;102270.09;;;3.59;100.00
7407;BME280;3745;56.964;24.128;2023-02-13T00:57:00;102265.06;;;3.59;100.00
7407;BME280;3745;56.964;24.128;2023-02-13T00:59:26;102259.47;;;3.63;100.00
7407;BME280;3745;56.964;24.128;2023-02-13T01:01:51;102258.63;;;3.63;100.00
7407;BME280;3745;56.964;24.128;2023-02-13T01:04:17;102224.72;;;3.55;100.00
7407;BME280;3745;56.964;24.128;2023-02-13T01:06:42;102207.69;;;3.49;100.00
7407;BME280;3745;56.964;24.128;2023-02-13T01:09:08;102198.03;;;3.42;100.00
7407;BME280;3745;56.964;24.128;2023-02-13T01:11:33;102196.13;;;3.51;100.00
7407;BME280;3745;56.964;24.128;2023-02-13T01:13:59;102226.88;;;3.75;100.00
7407;BME280;3745;56.964;24.128;2023-02-13T01:16:25;102236.59;;;3.70;100.00
7407;BME280;3745;56.964;24.128;2023-02-13T01:18:50;102215.97;;;3.61;100.00
7407;BME280;3745;56.964;24.128;2023-02-13T01:21:18;102239.19;;;3.72;100.00
7407;BME280;3745;56.964;24.128;2023-02-13T01:23:45;102221.56;;;3.70;100.00
7407;BME280;3745;56.964;24.128;2023-02-13T01:26:19;102219.81;;;3.69;100.00
7407;BME280;3745;56.964;24.128;2023-02-13T01:28:46;102219.38;;;3.75;100.00
7407;BME280;3745;56.964;24.128;2023-02-13T01:31:12;102216.75;;;3.73;100.00
7407;BME280;3745;56.964;24.128;2023-02-13T01:33:37;102177.28;;;3.56;100.00
7407;BME280;3745;56.964;24.128;2023-02-13T01:36:10;102153.38;;;3.48;100.00
7407;BME280;3745;56.964;24.128;2023-02-13T01:38:35;102170.34;;;3.52;100.00
7407;BME280;3745;56.964;24.128;2023-02-13T01:41:01;102183.81;;;3.54;100.00
7407;BME280;3745;56.964;24.128;2023-02-13T01:43:51;102181.91;;;3.50;100.00
7407;BME280;3745;56.964;24.128;2023-02-13T01:46:26;102221.75;;;3.73;100.00
7407;BME280;3745;56.964;24.128;2023-02-13T01:48:57;102195.06;;;3.61;100.00
7407;BME280;3745;56.964;24.128;2023-02-13T01:51:27;102212.44;;;3.71;100.00
7407;BME280;3745;56.964;24.128;2023-02-13T01:54:11;102153.97;;;3.31;100.00
7407;BME280;3745;56.964;24.128;2023-02-13T01:56:54;102221.56;;;3.70;100.00
7407;BME280;3745;56.964;24.128;2023-02-13T01:59:30;102195.28;;;3.64;100.00
7407;BME280;3745;56.964;24.128;2023-02-13T02:01:59;102180.91;;;3.48;100.00
7407;BME280;3745;56.964;24.128;2023-02-13T02:04:32;102206.34;;;3.67;100.00
7407;BME280;3745;56.964;24.128;2023-02-13T02:07:02;102138.28;;;3.34;100.00
7407;BME280;3745;56.964;24.128;2023-02-13T02:09:32;102212.50;;;3.72;100.00
7407;BME280;3745;56.964;24.128;2023-02-13T02:12:03;102208.84;;;3.67;100.00
7407;BME280;3745;56.964;24.128;2023-02-13T02:14:30;102193.16;;;3.57;100.00
7407;BME280;3745;56.964;24.128;2023-02-13T02:16:56;102199.22;;;3.60;100.00
7407;BME280;3745;56.964;24.128;2023-02-13T02:19:42;102196.31;;;3.54;100.00
7407;BME280;3745;56.964;24.128;2023-02-13T02:48:44;102212.72;;;3.62;100.00
7407;BME280;3745;56.964;24.128;2023-02-13T02:57:20;102218.84;;;3.54;100.00
7407;BME280;3745;56.964;24.128;2023-02-13T02:59:48;102219.03;;;3.57;100.00
7407;BME280;3745;56.964;24.128;2023-02-13T03:02:33;102225.59;;;3.55;100.00
7407;BME280;3745;56.964;24.128;2023-02-13T03:05:25;102215.59;;;3.55;100.00
7407;BME280;3745;56.964;24.128;2023-02-13T03:08:11;102222.34;;;3.56;100.00
7407;BME280;3745;56.964;24.128;2023-02-13T03:10:37;102186.00;;;3.37;100.00
7407;BME280;3745;56.964;24.128;2023-02-13T03:13:35;102182.63;;;3.36;100.00
7407;BME280;3745;56.964;24.128;2023-02-13T03:16:04;102195.66;;;3.44;100.00
7407;BME280;3745;56.964;24.128;2023-02-13T03:18:55;102199.59;;;3.40;100.00
7407;BME280;3745;56.964;24.128;2023-02-13T03:21:58;102213.44;;;3.48;100.00
7407;BME280;3745;56.964;24.128;2023-02-13T03:30:55;102159.34;;;3.24;100.00
7407;BME280;3745;56.964;24.128;2023-02-13T03:39:31;102216.94;;;3.50;100.00
7407;BME280;3745;56.964;24.128;2023-02-13T03:42:07;102213.63;;;3.51;100.00
7407;BME280;3745;56.964;24.128;2023-02-13T03:47:08;102206.31;;;3.54;100.00
7407;BME280;3745;56.964;24.128;2023-02-13T03:49:42;102224.03;;;3.57;100.00
7407;BME280;3745;56.964;24.128;2023-02-13T03:52:41;102217.88;;;3.52;100.00
7407;BME280;3745;56.964;24.128;2023-02-13T03:57:58;102199.41;;;3.50;100.00
7407;BME280;3745;56.964;24.128;2023-02-13T04:00:47;102213.63;;;3.51;100.00
7407;BME280;3745;56.964;24.128;2023-02-13T04:05:52;102124.09;;;2.95;100.00
7407;BME280;3745;56.964;24.128;2023-02-13T04:08:18;102210.00;;;3.46;100.00
7407;BME280;3745;56.964;24.128;2023-02-13T04:11:06;102195.72;;;3.32;100.00
7407;BME280;3745;56.964;24.128;2023-02-13T04:13:38;102202.84;;;3.39;100.00
7407;BME280;3745;56.964;24.128;2023-02-13T04:16:28;102183.78;;;3.28;100.00
7407;BME280;3745;56.964;24.128;2023-02-13T04:18:55;102192.63;;;3.36;100.00
7407;BME280;3745;56.964;24.128;2023-02-13T04:21:23;102187.84;;;3.39;100.00
7407;BME280;3745;56.964;24.128;2023-02-13T04:23:48;102191.69;;;3.34;100.00
7407;BME280;3745;56.964;24.128;2023-02-13T04:26:17;102193.31;;;3.34;100.00
7407;BME280;3745;56.964;24.128;2023-02-13T04:28:43;102190.53;;;3.29;100.00
7407;BME280;3745;56.964;24.128;2023-02-13T04:31:09;102188.78;;;3.28;100.00
7407;BME280;3745;56.964;24.128;2023-02-13T04:33:35;102171.63;;;3.21;100.00
7407;BME280;3745;56.964;24.128;2023-02-13T04:36:00;102177.03;;;3.27;100.00
7407;BME280;3745;56.964;24.128;2023-02-13T04:38:26;102180.34;;;3.26;100.00
7407;BME280;3745;56.964;24.128;2023-02-13T04:40:51;102181.16;;;3.26;100.00
7407;BME280;3745;56.964;24.128;2023-02-13T04:43:17;102144.22;;;3.09;100.00
7407;BME280;3745;56.964;24.128;2023-02-13T04:45:43;102178.09;;;3.31;100.00
7407;BME280;3745;56.964;24.128;2023-02-13T04:48:12;102177.63;;;3.23;100.00
7407;BME280;3745;56.964;24.128;2023-02-13T04:50:37;102176.84;;;3.24;100.00
7407;BME280;3745;56.964;24.128;2023-02-13T04:53:03;102181.66;;;3.21;100.00
7407;BME280;3745;56.964;24.128;2023-02-13T04:55:29;102170.13;;;3.23;100.00
7407;BME280;3745;56.964;24.128;2023-02-13T04:57:55;102170.13;;;3.23;100.00
7407;BME280;3745;56.964;24.128;2023-02-13T05:00:22;102172.31;;;3.18;100.00
7407;BME280;3745;56.964;24.128;2023-02-13T05:02:48;102140.25;;;3.00;100.00
7407;BME280;3745;56.964;24.128;2023-02-13T05:05:14;102177.50;;;3.21;100.00
7407;BME280;3745;56.964;24.128;2023-02-13T05:07:41;102170.84;;;3.09;100.00
7407;BME280;3745;56.964;24.128;2023-02-13T05:10:08;102144.84;;;2.94;100.00
7407;BME280;3745;56.964;24.128;2023-02-13T05:12:34;102184.09;;;3.08;100.00
7407;BME280;3745;56.964;24.128;2023-02-13T05:15:00;102181.03;;;3.12;100.00
7407;BME280;3745;56.964;24.128;2023-02-13T05:17:25;102180.38;;;3.14;100.00
7407;BME280;3745;56.964;24.128;2023-02-13T05:19:51;102184.50;;;3.14;100.00
7407;BME280;3745;56.964;24.128;2023-02-13T05:22:17;102184.09;;;3.08;100.00
7407;BME280;3745;56.964;24.128;2023-02-13T05:25:01;102151.78;;;2.98;100.00
7407;BME280;3745;56.964;24.128;2023-02-13T05:27:26;102168.75;;;3.15;100.00
7407;BME280;3745;56.964;24.128;2023-02-13T05:29:52;102168.66;;;3.13;100.00
7407;BME280;3745;56.964;24.128;2023-02-13T05:32:17;102164.63;;;3.15;100.00
7407;BME280;3745;56.964;24.128;2023-02-13T05:34:43;102161.25;;;3.15;100.00
7407;BME280;3745;56.964;24.128;2023-02-13T05:37:09;102164.09;;;3.08;100.00
7407;BME280;3745;56.964;24.128;2023-02-13T05:39:34;102165.66;;;3.06;100.00
7407;BME280;3745;56.964;24.128;2023-02-13T05:42:00;102156.19;;;3.02;100.00
7407;BME280;3745;56.964;24.128;2023-02-13T05:44:25;102136.19;;;2.89;100.00
7407;BME280;3745;56.964;24.128;2023-02-13T05:46:51;102123.38;;;2.84;100.00
7407;BME280;3745;56.964;24.128;2023-02-13T05:49:17;102157.38;;;3.07;100.00
7407;BME280;3745;56.964;24.128;2023-02-13T05:51:43;102160.66;;;3.06;100.00
7407;BME280;3745;56.964;24.128;2023-02-13T05:54:10;102166.81;;;3.11;100.00
7407;BME280;3745;56.964;24.128;2023-02-13T05:56:36;102170.84;;;3.09;100.00
7407;BME280;3745;56.964;24.128;2023-02-13T05:59:03;102174.50;;;3.14;100.00
7407;BME280;3745;56.964;24.128;2023-02-13T06:01:29;102176.25;;;3.15;100.00
7407;BME280;3745;56.964;24.128;2023-02-13T06:03:54;102155.63;;;3.06;100.00
7407;BME280;3745;56.964;24.128;2023-02-13T06:06:20;102145.44;;;3.03;100.00
7407;BME280;3745;56.964;24.128;2023-02-13T06:08:47;102167.78;;;3.13;100.00
7407;BME280;3745;56.964;24.128;2023-02-13T06:11:13;102175.88;;;3.22;100.00
7407;BME280;3745;56.964;24.128;2023-02-13T06:13:38;102157.97;;;3.16;100.00
7407;BME280;3745;56.964;24.128;2023-02-13T06:16:08;102121.38;;;2.92;100.00
7407;BME280;3745;56.964;24.128;2023-02-13T06:18:35;102178.19;;;3.19;100.00
7407;BME280;3745;56.964;24.128;2023-02-13T06:21:01;102116.00;;;2.86;100.00
7407;BME280;3745;56.964;24.128;2023-02-13T06:23:27;102149.78;;;3.05;100.00
7407;BME280;3745;56.964;24.128;2023-02-13T06:25:53;102187.03;;;3.27;100.00
7407;BME280;3745;56.964;24.128;2023-02-13T06:28:18;102143.91;;;3.05;100.00
7407;BME280;3745;56.964;24.128;2023-02-13T06:30:44;102166.44;;;3.18;100.00
7407;BME280;3745;56.964;24.128;2023-02-13T06:33:10;102168.38;;;3.22;100.00
7407;BME280;3745;56.964;24.128;2023-02-13T06:35:35;102126.38;;;3.05;100.00
7407;BME280;3745;56.964;24.128;2023-02-13T06:38:01;102163.38;;;3.22;100.00
7407;BME280;3745;56.964;24.128;2023-02-13T06:40:27;102155.69;;;3.19;100.00
7407;BME280;3745;56.964;24.128;2023-02-13T06:42:52;102166.84;;;3.24;100.00
7407;BME280;3745;56.964;24.128;2023-02-13T06:45:18;102158.78;;;3.28;100.00
7407;BME280;3745;56.964;24.128;2023-02-13T06:47:45;102130.63;;;3.06;100.00
7407;BME280;3745;56.964;24.128;2023-02-13T06:50:13;102177.81;;;3.39;100.00
7407;BME280;3745;56.964;24.128;2023-02-13T06:52:46;102162.13;;;3.15;100.00
7407;BME280;3745;56.964;24.128;2023-02-13T06:55:12;102166.44;;;3.18;100.00
7407;BME280;3745;56.964;24.128;2023-02-13T06:57:38;102195.94;;;3.35;100.00
7407;BME280;3745;56.964;24.128;2023-02-13T07:00:04;102143.06;;;3.04;100.00
7407;BME280;3745;56.964;24.128;2023-02-13T07:02:31;102183.88;;;3.29;100.00
7407;BME280;3745;56.964;24.128;2023-02-13T07:04:57;102160.13;;;3.23;100.00
7407;BME280;3745;56.964;24.128;2023-02-13T07:07:23;102199.78;;;3.43;100.00
7407;BME280;3745;56.964;24.128;2023-02-13T07:09:49;102204.97;;;3.46;100.00
7407;BME280;3745;56.964;24.128;2023-02-13T07:12:15;102193.03;;;3.42;100.00
7407;BME280;3745;56.964;24.128;2023-02-13T07:14:40;102198.81;;;3.54;100.00
7407;BME280;3745;56.964;24.128;2023-02-13T07:17:06;102203.28;;;3.71;100.00
7407;BME280;3745;56.964;24.128;2023-02-13T07:19:31;102148.19;;;3.45;100.00
7407;BME280;3745;56.964;24.128;2023-02-13T07:21:57;102201.72;;;3.73;100.00
7407;BME280;3745;56.964;24.128;2023-02-13T07:24:23;102173.63;;;3.64;100.00
7407;BME280;3745;56.964;24.128;2023-02-13T07:26:49;102183.25;;;3.71;100.00
7407;BME280;3745;56.964;24.128;2023-02-13T07:29:14;102177.47;;;3.72;100.00
7407;BME280;3745;56.964;24.128;2023-02-13T07:31:40;102139.25;;;3.49;100.00
7407;BME280;3745;56.964;24.128;2023-02-13T07:34:06;102129.34;;;3.50;100.00
7407;BME280;3745;56.964;24.128;2023-02-13T07:36:32;102159.94;;;3.72;100.00
7407;BME280;3745;56.964;24.128;2023-02-13T07:38:57;102114.22;;;3.49;100.00
7407;BME280;3745;56.964;24.128;2023-02-13T07:41:23;102141.06;;;3.64;100.00
7407;BME280;3745;56.964;24.128;2023-02-13T07:43:51;102185.34;;;3.78;100.00
7407;BME280;3745;56.964;24.128;2023-02-13T07:46:17;102180.72;;;3.84;100.00
7407;BME280;3745;56.964;24.128;2023-02-13T07:48:43;102188.66;;;3.91;100.00
7407;BME280;3745;56.964;24.128;2023-02-13T07:51:08;102182.09;;;3.93;100.00
7407;BME280;3745;56.964;24.128;2023-02-13T07:53:34;102176.69;;;4.00;100.00
7407;BME280;3745;56.964;24.128;2023-02-13T07:56:07;102115.19;;;3.64;100.00
7407;BME280;3745;56.964;24.128;2023-02-13T07:58:33;102130.28;;;3.78;100.00
7407;BME280;3745;56.964;24.128;2023-02-13T08:01:05;102137.59;;;3.89;100.00
7407;BME280;3745;56.964;24.128;2023-02-13T08:03:30;102119.09;;;3.87;100.00
7407;BME280;3745;56.964;24.128;2023-02-13T08:05:56;102145.09;;;4.02;100.00
7407;BME280;3745;56.964;24.128;2023-02-13T08:08:21;102150.47;;;4.08;100.00
7407;BME280;3745;56.964;24.128;2023-02-13T08:10:47;102156.22;;;4.20;100.00
7407;BME280;3745;56.964;24.128;2023-02-13T08:13:31;102152.41;;;4.12;100.00
7407;BME280;3745;56.964;24.128;2023-02-13T08:15:57;102155.66;;;4.11;100.00
7407;BME280;3745;56.964;24.128;2023-02-13T08:18:23;102121.81;;;3.90;100.00
7407;BME280;3745;56.964;24.128;2023-02-13T08:20:48;102112.53;;;3.89;100.00
7407;BME280;3745;56.964;24.128;2023-02-13T08:23:14;102162.28;;;4.23;100.00
7407;BME280;3745;56.964;24.128;2023-02-13T08:25:39;102153.00;;;4.35;100.00
7407;BME280;3745;56.964;24.128;2023-02-13T08:28:06;102123.75;;;4.21;100.00
7407;BME280;3745;56.964;24.128;2023-02-13T08:30:31;102117.28;;;4.25;100.00
7407;BME280;3745;56.964;24.128;2023-02-13T08:32:57;102133.22;;;4.40;100.00
7407;BME280;3745;56.964;24.128;2023-02-13T08:35:23;102125.06;;;4.57;100.00
7407;BME280;3745;56.964;24.128;2023-02-13T08:37:52;102101.56;;;4.55;100.00
7407;BME280;3745;56.964;24.128;2023-02-13T08:40:17;102123.28;;;4.69;100.00
7407;BME280;3745;56.964;24.128;2023-02-13T08:42:43;102102.50;;;4.57;100.00
7407;BME280;3745;56.964;24.128;2023-02-13T08:45:08;102128.88;;;4.65;100.00
7407;BME280;3745;56.964;24.128;2023-02-13T08:47:36;102148.13;;;4.79;100.00
7407;BME280;3745;56.964;24.128;2023-02-13T08:50:03;102093.41;;;4.59;100.00
7407;BME280;3745;56.964;24.128;2023-02-13T08:52:28;102133.06;;;4.79;100.00
7407;BME280;3745;56.964;24.128;2023-02-13T08:54:54;102158.00;;;5.06;100.00
7407;BME280;3745;56.964;24.128;2023-02-13T08:57:20;102059.53;;;4.51;100.00
7407;BME280;3745;56.964;24.128;2023-02-13T08:59:45;102112.13;;;4.93;100.00
7407;BME280;3745;56.964;24.128;2023-02-13T09:02:11;102139.56;;;5.05;100.00
7407;BME280;3745;56.964;24.128;2023-02-13T09:04:37;102114.06;;;4.98;100.00
7407;BME280;3745;56.964;24.128;2023-02-13T09:07:03;102133.94;;;5.24;100.00
7407;BME280;3745;56.964;24.128;2023-02-13T09:09:28;102121.50;;;5.25;100.00
7407;BME280;3745;56.964;24.128;2023-02-13T09:11:54;102116.81;;;5.31;100.00
7407;BME280;3745;56.964;24.128;2023-02-13T09:14:25;102115.22;;;5.48;100.00
7407;BME280;3745;56.964;24.128;2023-02-13T09:16:50;102116.94;;;5.49;100.00
7407;BME280;3745;56.964;24.128;2023-02-13T09:19:16;102116.34;;;5.53;100.00
7407;BME280;3745;56.964;24.128;2023-02-13T09:21:42;102122.47;;;5.58;100.00
7407;BME280;3745;56.964;24.128;2023-02-13T09:24:10;102046.75;;;5.20;100.00
7407;BME280;3745;56.964;24.128;2023-02-13T09:26:39;102072.34;;;5.29;100.00
7407;BME280;3745;56.964;24.128;2023-02-13T09:29:05;102079.06;;;5.30;100.00
7407;BME280;3745;56.964;24.128;2023-02-13T09:31:30;102074.00;;;5.44;100.00
7407;BME280;3745;56.964;24.128;2023-02-13T09:33:56;102062.00;;;5.39;100.00
7407;BME280;3745;56.964;24.128;2023-02-13T09:36:26;102078.69;;;5.53;100.00
7407;BME280;3745;56.964;24.128;2023-02-13T09:38:55;102105.84;;;5.60;100.00
7407;BME280;3745;56.964;24.128;2023-02-13T09:41:40;102084.81;;;5.58;100.00
7407;BME280;3745;56.964;24.128;2023-02-13T09:49:38;102070.69;;;5.60;100.00
7407;BME280;3745;56.964;24.128;2023-02-13T09:52:07;102109.41;;;5.94;100.00
7407;BME280;3745;56.964;24.128;2023-02-13T09:54:34;102049.84;;;5.77;100.00
7407;BME280;3745;56.964;24.128;2023-02-13T09:57:02;102072.53;;;5.93;100.00
7407;BME280;3745;56.964;24.128;2023-02-13T10:02:13;102049.09;;;5.94;100.00
7407;BME280;3745;56.964;24.128;2023-02-13T10:07:50;102077.88;;;5.99;100.00
7407;BME280;3745;56.964;24.128;2023-02-13T10:16:16;102080.00;;;5.77;100.00
7407;BME280;3745;56.964;24.128;2023-02-13T10:19:25;102066.31;;;5.72;100.00
7407;BME280;3745;56.964;24.128;2023-02-13T10:21:57;102059.09;;;5.62;100.00
7407;BME280;3745;56.964;24.128;2023-02-13T10:27:19;102048.88;;;5.59;100.00
7407;BME280;3745;56.964;24.128;2023-02-13T10:32:49;102041.19;;;5.72;100.00
7407;BME280;3745;56.964;24.128;2023-02-13T10:35:36;102070.97;;;6.12;100.00
7407;BME280;3745;56.964;24.128;2023-02-13T10:38:15;102073.78;;;6.18;100.00
7407;BME280;3745;56.964;24.128;2023-02-13T10:41:25;102040.34;;;6.03;100.00
7407;BME280;3745;56.964;24.128;2023-02-13T10:44:18;102080.47;;;6.33;100.00
7407;BME280;3745;56.964;24.128;2023-02-13T10:50:06;102060.50;;;6.36;100.00
7407;BME280;3745;56.964;24.128;2023-02-13T10:58:13;102057.63;;;6.63;100.00
7407;BME280;3745;56.964;24.128;2023-02-13T11:01:05;102033.41;;;6.65;100.00
7407;BME280;3745;56.964;24.128;2023-02-13T11:03:34;101898.69;;;6.00;100.00
7407;BME280;3745;56.964;24.128;2023-02-13T11:06:05;102039.22;;;6.80;100.00
7407;BME280;3745;56.964;24.128;2023-02-13T11:08:33;102041.94;;;6.84;100.00
7407;BME280;3745;56.964;24.128;2023-02-13T11:10:59;101949.03;;;6.36;100.00
7407;BME280;3745;56.964;24.128;2023-02-13T11:13:27;101995.91;;;6.69;100.00
7407;BME280;3745;56.964;24.128;2023-02-13T11:16:02;101996.22;;;6.75;100.00
7407;BME280;3745;56.964;24.128;2023-02-13T11:18:30;102033.03;;;7.08;100.00
7407;BME280;3745;56.964;24.128;2023-02-13T11:21:30;102023.69;;;7.24;100.00
7407;BME280;3745;56.964;24.128;2023-02-13T11:23:58;102009.75;;;7.13;100.00
7407;BME280;3745;56.964;24.128;2023-02-13T11:26:35;102003.41;;;7.21;100.00
7407;BME280;3745;56.964;24.128;2023-02-13T11:29:19;101853.06;;;6.44;100.00
7407;BME280;3745;56.964;24.128;2023-02-13T11:32:00;102023.22;;;7.50;100.00
7407;BME280;3745;56.964;24.128;2023-02-13T11:34:29;101887.41;;;6.79;100.00
7407;BME280;3745;56.964;24.128;2023-02-13T11:37:14;102013.16;;;7.50;100.00
7407;BME280;3745;56.964;24.128;2023-02-13T11:39:42;101995.38;;;7.47;100.00
7407;BME280;3745;56.964;24.128;2023-02-13T11:42:40;101952.16;;;7.38;100.00
7407;BME280;3745;56.964;24.128;2023-02-13T11:45:20;101926.84;;;7.35;100.00
7407;BME280;3745;56.964;24.128;2023-02-13T11:47:47;101966.63;;;7.61;100.00
7407;BME280;3745;56.964;24.128;2023-02-13T11:50:27;101966.75;;;7.64;100.00
7407;BME280;3745;56.964;24.128;2023-02-13T11:52:59;101898.59;;;7.23;100.00
7407;BME280;3745;56.964;24.128;2023-02-13T11:55:39;101975.50;;;7.72;100.00
7407;BME280;3745;56.964;24.128;2023-02-13T12:00:39;101950.47;;;7.75;100.00
7407;BME280;3745;56.964;24.128;2023-02-13T12:08:28;101929.22;;;7.89;100.00
7407;BME280;3745;56.964;24.128;2023-02-13T12:10:55;101934.25;;;7.89;100.00
7407;BME280;3745;56.964;24.128;2023-02-13T12:13:48;101881.63;;;7.76;100.00
7407;BME280;3745;56.964;24.128;2023-02-13T12:18:53;101919.41;;;7.95;100.00
7407;BME280;3745;56.964;24.128;2023-02-13T12:23:56;101898.13;;;8.09;100.00
7407;BME280;3745;56.964;24.128;2023-02-13T12:26:49;101908.91;;;8.05;100.00
7407;BME280;3745;56.964;24.128;2023-02-13T12:32:00;101910.06;;;8.13;100.00
7407;BME280;3745;56.964;24.128;2023-02-13T12:45:40;101880.34;;;8.06;100.00
7407;BME280;3745;56.964;24.128;2023-02-13T12:48:37;101923.28;;;8.48;100.00
7407;BME280;3745;56.964;24.128;2023-02-13T12:51:15;101935.09;;;8.49;100.00
7407;BME280;3745;56.964;24.128;2023-02-13T13:11:14;101896.63;;;7.94;100.00
7407;BME280;3745;56.964;24.128;2023-02-13T13:22:01;101961.19;;;7.90;100.00
7407;BME280;3745;56.964;24.128;2023-02-13T13:24:37;101968.06;;;7.94;100.00
7407;BME280;3745;56.964;24.128;2023-02-13T13:27:19;101952.44;;;7.82;100.00
7407;BME280;3745;56.964;24.128;2023-02-13T13:29:52;101983.06;;;7.91;100.00
7407;BME280;3745;56.964;24.128;2023-02-13T13:32:20;101975.94;;;7.81;100.00
7407;BME280;3745;56.964;24.128;2023-02-13T13:34:47;101980.97;;;7.81;100.00
7407;BME280;3745;56.964;24.128;2023-02-13T13:37:33;101981.66;;;7.79;100.00
7407;BME280;3745;56.964;24.128;2023-02-13T13:42:50;101984.00;;;7.74;100.00
7407;BME280;3745;56.964;24.128;2023-02-13T13:51:13;101978.31;;;7.59;100.00
7407;BME280;3745;56.964;24.128;2023-02-13T13:56:25;101960.09;;;7.28;100.00
7407;BME280;3745;56.964;24.128;2023-02-13T13:58:51;101998.91;;;7.33;100.00
7407;BME280;3745;56.964;24.128;2023-02-13T14:01:23;101992.03;;;7.29;100.00
7407;BME280;3745;56.964;24.128;2023-02-13T14:03:51;101997.34;;;7.35;100.00
7407;BME280;3745;56.964;24.128;2023-02-13T14:06:20;102001.69;;;7.20;100.00
7407;BME280;3745;56.964;24.128;2023-02-13T14:08:54;101989.47;;;7.09;100.00
7407;BME280;3745;56.964;24.128;2023-02-13T14:11:34;101776.88;;;5.76;100.00
7407;BME280;3745;56.964;24.128;2023-02-13T14:14:01;101973.78;;;6.97;100.00
7407;BME280;3745;56.964;24.128;2023-02-13T14:16:48;101974.06;;;7.03;100.00
7407;BME280;3745;56.964;24.128;2023-02-13T14:19:33;101982.56;;;7.05;100.00
7407;BME280;3745;56.964;24.128;2023-02-13T14:24:53;101981.50;;;7.00;100.00
7407;BME280;3745;56.964;24.128;2023-02-13T14:27:22;101943.72;;;6.65;100.00
7407;BME280;3745;56.964;24.128;2023-02-13T14:29:49;101990.03;;;6.86;100.00
7407;BME280;3745;56.964;24.128;2023-02-13T14:32:43;101992.09;;;6.77;100.00
7407;BME280;3745;56.964;24.128;2023-02-13T14:35:22;102016.34;;;6.75;100.00
7407;BME280;3745;56.964;24.128;2023-02-13T14:37:51;102018.06;;;6.76;100.00
7407;BME280;3745;56.964;24.128;2023-02-13T14:42:56;101928.03;;;6.18;100.00
7407;BME280;3745;56.964;24.128;2023-02-13T14:45:33;101925.88;;;6.25;100.00
7407;BME280;3745;56.964;24.128;2023-02-13T14:48:07;102001.53;;;6.64;100.00
7407;BME280;3745;56.964;24.128;2023-02-13T14:50:45;101884.72;;;5.89;100.00
7407;BME280;3745;56.964;24.128;2023-02-13T14:53:23;101988.25;;;6.50;100.00
7407;BME280;3745;56.964;24.128;2023-02-13T14:56:12;101994.59;;;6.60;100.00
7407;BME280;3745;56.964;24.128;2023-02-13T15:02:24;101973.66;;;6.43;100.00
7407;BME280;3745;56.964;24.128;2023-02-13T15:05:00;101963.50;;;6.24;100.00
7407;BME280;3745;56.964;24.128;2023-02-13T15:07:58;101981.09;;;6.24;100.00
7407;BME280;3745;56.964;24.128;2023-02-13T15:10:35;101991.78;;;6.20;100.00
7407;BME280;3745;56.964;24.128;2023-02-13T15:13:16;101996.19;;;6.08;100.00
7407;BME280;3745;56.964;24.128;2023-02-13T15:15:44;101966.19;;;5.94;100.00
7407;BME280;3745;56.964;24.128;2023-02-13T15:18:23;101935.19;;;5.78;100.00
7407;BME280;3745;56.964;24.128;2023-02-13T15:20:53;101986.00;;;6.05;100.00
7407;BME280;3745;56.964;24.128;2023-02-13T15:23:22;101935.25;;;5.63;100.00
7407;BME280;3745;56.964;24.128;2023-02-13T15:25:59;102005.31;;;5.89;100.00
7407;BME280;3745;56.964;24.128;2023-02-13T15:28:26;102015.19;;;5.86;100.00
7407;BME280;3745;56.964;24.128;2023-02-13T15:31:16;102010.00;;;5.83;100.00
7407;BME280;3745;56.964;24.128;2023-02-13T15:33:50;101971.97;;;5.61;100.00
7407;BME280;3745;56.964;24.128;2023-02-13T15:36:18;102012.47;;;5.67;100.00
7407;BME280;3745;56.964;24.128;2023-02-13T15:38:45;102012.63;;;5.70;100.00
7407;BME280;3745;56.964;24.128;2023-02-13T15:41:22;102015.91;;;5.69;100.00
7407;BME280;3745;56.964;24.128;2023-02-13T15:43:55;101973.81;;;5.33;100.00
7407;BME280;3745;56.964;24.128;2023-02-13T15:46:31;102022.19;;;5.61;100.00
7407;BME280;3745;56.964;24.128;2023-02-13T15:49:00;102018.44;;;5.53;100.00
7407;BME280;3745;56.964;24.128;2023-02-13T15:51:30;102028.16;;;5.47;100.00
7407;BME280;3745;56.964;24.128;2023-02-13T15:54:01;102019.81;;;5.48;100.00
7407;BME280;3745;56.964;24.128;2023-02-13T15:56:28;102029.69;;;5.45;100.00